createdAt,value
2019-02-27T00:01:28.443Z,6.70
2019-02-27T00:03:59.857Z,6.60
2019-02-27T00:06:29.228Z,6.50
2019-02-27T00:09:00.509Z,6.50
2019-02-27T00:11:29.873Z,6.50
2019-02-27T00:13:59.439Z,6.50
2019-02-27T00:16:28.880Z,6.60
2019-02-27T00:18:58.914Z,6.50
2019-02-27T00:21:28.895Z,6.50
2019-02-27T00:23:58.304Z,6.60
2019-02-27T00:26:27.743Z,6.50
2019-02-27T00:28:57.203Z,6.30
2019-02-27T00:31:26.629Z,6.10
2019-02-27T00:33:59.640Z,5.80
2019-02-27T00:36:27.318Z,5.30
2019-02-27T00:38:57.939Z,4.60
2019-02-27T00:41:28.039Z,4.30
2019-02-27T00:44:01.069Z,3.90
2019-02-27T00:46:28.535Z,3.50
2019-02-27T00:48:59.363Z,3.30
2019-02-27T00:51:29.122Z,3.40
2019-02-27T00:53:59.009Z,3.40
2019-02-27T00:56:28.720Z,3.30
2019-02-27T00:59:00.137Z,3.30
2019-02-27T01:01:29.212Z,3.20
2019-02-27T01:04:00.942Z,3.30
2019-02-27T01:06:29.998Z,3.30
2019-02-27T01:08:59.386Z,3.30
2019-02-27T01:11:28.861Z,3.20
2019-02-27T01:13:58.390Z,3.20
2019-02-27T01:16:27.790Z,3.30
2019-02-27T01:18:57.253Z,3.60
2019-02-27T01:21:26.759Z,3.80
2019-02-27T01:23:56.410Z,4.10
2019-02-27T01:26:30.654Z,4.30
2019-02-27T01:28:56.981Z,4.60
2019-02-27T01:31:26.535Z,4.70
2019-02-27T01:33:55.998Z,4.70
2019-02-27T01:36:25.566Z,4.90
2019-02-27T01:38:54.946Z,4.90
2019-02-27T01:41:25.093Z,4.90
2019-02-27T01:43:55.731Z,4.80
2019-02-27T01:46:27.741Z,4.80
2019-02-27T01:48:56.543Z,4.50
2019-02-27T01:51:28.309Z,4.40
2019-02-27T01:53:57.163Z,4.20
2019-02-27T01:56:28.893Z,3.80
2019-02-27T01:58:57.688Z,3.30
2019-02-27T02:01:29.778Z,2.90
2019-02-27T02:03:58.535Z,2.70
2019-02-27T02:06:31.999Z,2.60
2019-02-27T02:09:11.338Z,2.50
2019-02-27T02:11:41.246Z,2.40
2019-02-27T02:14:21.102Z,2.40
2019-02-27T02:16:59.118Z,2.70
2019-02-27T02:19:31.600Z,3.20
2019-02-27T02:22:09.006Z,3.50
2019-02-27T02:25:17.480Z,3.80
2019-02-27T02:28:12.127Z,4.00
2019-02-27T02:31:06.549Z,4.20
2019-02-27T02:33:41.800Z,4.10
2019-02-27T02:36:29.180Z,3.80
2019-02-27T02:39:31.384Z,3.00
2019-02-27T02:42:24.295Z,2.50
2019-02-27T02:45:09.539Z,2.10
2019-02-27T02:47:44.840Z,1.90
2019-02-27T02:50:39.933Z,1.70
2019-02-27T02:53:15.539Z,1.60
2019-02-27T02:56:24.754Z,1.50
2019-02-27T02:59:26.153Z,1.30
2019-02-27T03:02:13.703Z,1.20
2019-02-27T03:05:04.225Z,1.20
2019-02-27T03:07:57.935Z,1.10
2019-02-27T03:10:59.354Z,1.00
2019-02-27T03:13:47.285Z,1.00
2019-02-27T03:16:25.400Z,0.90
2019-02-27T03:19:05.091Z,0.90
2019-02-27T03:21:50.002Z,1.00
2019-02-27T03:24:43.440Z,1.00
2019-02-27T03:27:18.711Z,1.00
2019-02-27T03:30:09.412Z,1.00
2019-02-27T03:33:01.319Z,1.10
2019-02-27T03:35:53.736Z,1.30
2019-02-27T03:38:31.884Z,1.40
2019-02-27T03:41:28.739Z,1.40
2019-02-27T03:44:06.257Z,1.40
2019-02-27T03:46:47.660Z,1.40
2019-02-27T03:49:50.458Z,1.40
2019-02-27T03:52:47.450Z,1.30
2019-02-27T03:55:39.615Z,1.10
2019-02-27T03:58:20.775Z,1.10
2019-02-27T04:01:11.381Z,1.10
2019-02-27T04:04:17.296Z,1.20
2019-02-27T04:07:21.855Z,1.20
2019-02-27T04:09:54.885Z,1.20
2019-02-27T04:12:22.409Z,1.30
2019-02-27T04:14:51.946Z,1.30
2019-02-27T04:17:27.816Z,1.40
2019-02-27T04:19:57.943Z,1.40
2019-02-27T04:22:27.455Z,1.40
2019-02-27T04:24:57.691Z,1.40
2019-02-27T04:27:27.558Z,1.50
2019-02-27T04:29:56.960Z,1.50
2019-02-27T04:32:26.421Z,1.70
2019-02-27T04:34:55.807Z,1.80
2019-02-27T04:37:25.607Z,1.80
2019-02-27T04:39:55.142Z,1.70
2019-02-27T04:42:25.662Z,1.60
2019-02-27T04:44:56.045Z,1.70
2019-02-27T04:47:29.228Z,1.70
2019-02-27T04:49:57.909Z,1.80
2019-02-27T04:52:27.457Z,1.70
2019-02-27T04:54:56.904Z,1.70
2019-02-27T04:57:38.949Z,1.70
2019-02-27T05:00:10.894Z,1.60
2019-02-27T05:02:40.402Z,1.60
2019-02-27T05:05:10.135Z,1.70
2019-02-27T05:07:39.543Z,1.70
2019-02-27T05:10:10.475Z,1.80
2019-02-27T05:12:40.020Z,1.90
2019-02-27T05:15:09.710Z,1.80
2019-02-27T05:17:39.108Z,1.90
2019-02-27T05:20:11.835Z,1.80
2019-02-27T05:22:40.323Z,1.70
2019-02-27T05:25:12.153Z,1.70
2019-02-27T05:27:40.917Z,1.60
2019-02-27T05:30:31.167Z,1.50
2019-02-27T05:33:02.236Z,1.50
2019-02-27T05:35:31.923Z,1.50
2019-02-27T05:38:01.387Z,1.50
2019-02-27T05:40:30.806Z,1.40
2019-02-27T05:43:00.279Z,1.40
2019-02-27T05:45:31.215Z,1.40
2019-02-27T05:48:00.806Z,1.50
2019-02-27T05:50:33.946Z,1.60
2019-02-27T05:53:01.315Z,1.80
2019-02-27T05:55:30.777Z,1.80
2019-02-27T05:58:00.163Z,1.60
2019-02-27T06:00:30.326Z,1.60
2019-02-27T06:02:59.763Z,1.70
2019-02-27T06:05:29.371Z,1.80
2019-02-27T06:08:02.060Z,2.00
2019-02-27T06:10:30.083Z,2.20
2019-02-27T06:12:59.467Z,2.50
2019-02-27T06:15:31.674Z,2.90
2019-02-27T06:18:01.094Z,3.10
2019-02-27T06:20:30.649Z,3.30
2019-02-27T06:23:04.114Z,3.50
2019-02-27T06:25:31.104Z,3.40
2019-02-27T06:28:00.694Z,3.50
2019-02-27T06:30:30.796Z,3.50
2019-02-27T06:33:00.906Z,3.60
2019-02-27T06:35:33.521Z,3.60
2019-02-27T06:38:01.524Z,3.70
2019-02-27T06:40:31.068Z,3.80
2019-02-27T06:43:00.491Z,3.90
2019-02-27T06:45:29.943Z,3.80
2019-02-27T06:47:59.313Z,3.70
2019-02-27T06:50:28.767Z,3.70
2019-02-27T06:52:58.298Z,3.70
2019-02-27T06:55:28.061Z,3.70
2019-02-27T06:57:58.226Z,3.50
2019-02-27T07:00:27.853Z,3.30
2019-02-27T07:02:57.287Z,3.10
2019-02-27T07:05:26.813Z,3.00
2019-02-27T07:07:56.284Z,3.00
2019-02-27T07:10:25.768Z,3.10
2019-02-27T07:12:55.427Z,3.20
2019-02-27T07:15:25.289Z,3.60
2019-02-27T07:17:54.786Z,3.90
2019-02-27T07:20:25.311Z,4.20
2019-02-27T07:22:56.424Z,4.60
2019-02-27T07:25:25.891Z,5.00
2019-02-27T07:27:55.322Z,5.30
2019-02-27T07:30:24.847Z,5.70
2019-02-27T07:32:54.321Z,5.90
2019-02-27T07:35:26.657Z,6.20
2019-02-27T07:37:56.709Z,6.30
2019-02-27T07:40:26.207Z,6.50
2019-02-27T07:42:55.651Z,6.70
2019-02-27T07:45:25.169Z,6.80
2019-02-27T07:47:54.931Z,7.00
2019-02-27T07:50:24.478Z,7.10
2019-02-27T07:52:53.949Z,7.30
2019-02-27T07:55:28.240Z,7.20
2019-02-27T07:57:58.472Z,7.20
2019-02-27T08:00:26.516Z,7.20
2019-02-27T08:02:56.139Z,7.40
2019-02-27T08:05:27.885Z,7.50
2019-02-27T08:07:56.815Z,7.60
2019-02-27T08:10:26.743Z,7.80
2019-02-27T08:12:56.730Z,7.90
2019-02-27T08:15:27.852Z,8.20
2019-02-27T08:17:58.635Z,8.20
2019-02-27T08:20:28.266Z,8.20
2019-02-27T08:22:57.979Z,8.30
2019-02-27T08:25:27.464Z,8.40
2019-02-27T08:27:56.974Z,8.80
2019-02-27T08:30:27.842Z,9.10
2019-02-27T08:32:57.250Z,9.60
2019-02-27T08:35:26.738Z,9.90
2019-02-27T08:38:02.602Z,10.40
2019-02-27T08:40:27.567Z,10.70
2019-02-27T08:42:57.039Z,11.40
2019-02-27T08:45:27.100Z,12.00
2019-02-27T08:47:57.400Z,12.60
2019-02-27T08:50:29.280Z,12.90
2019-02-27T08:52:58.200Z,13.20
2019-02-27T08:55:27.695Z,13.50
2019-02-27T08:57:57.252Z,13.80
2019-02-27T09:00:29.704Z,13.90
2019-02-27T09:03:02.469Z,14.30
2019-02-27T09:05:30.883Z,14.50
2019-02-27T09:08:00.295Z,14.80
2019-02-27T09:10:30.787Z,15.10
2019-02-27T09:13:05.404Z,15.30
2019-02-27T09:15:31.614Z,15.30
2019-02-27T09:18:01.901Z,15.10
2019-02-27T09:20:32.234Z,15.60
2019-02-27T09:23:01.771Z,16.00
2019-02-27T09:25:31.205Z,16.50
2019-02-27T09:28:01.264Z,16.70
2019-02-27T09:30:30.619Z,16.50
2019-02-27T09:33:00.089Z,16.90
2019-02-27T09:35:32.540Z,16.90
2019-02-27T09:38:00.879Z,17.00
2019-02-27T09:40:30.378Z,17.20
2019-02-27T09:42:59.905Z,16.80
2019-02-27T09:45:36.685Z,16.60
2019-02-27T09:48:06.322Z,16.60
2019-02-27T09:50:38.105Z,16.80
2019-02-27T09:53:07.668Z,17.40
2019-02-27T09:55:37.355Z,17.20
2019-02-27T09:58:11.018Z,17.40
2019-02-27T10:00:48.119Z,17.30
2019-02-27T10:03:21.322Z,17.50
2019-02-27T10:05:48.915Z,18.00
2019-02-27T10:08:18.808Z,18.50
2019-02-27T10:10:48.388Z,18.10
2019-02-27T10:13:17.883Z,18.60
2019-02-27T10:15:47.631Z,18.80
2019-02-27T10:18:19.060Z,18.70
2019-02-27T10:20:48.243Z,18.70
2019-02-27T10:23:17.815Z,18.50
2019-02-27T10:25:47.302Z,18.70
2019-02-27T10:28:16.690Z,18.80
2019-02-27T10:30:46.955Z,18.80
2019-02-27T10:33:17.326Z,19.00
2019-02-27T10:35:47.413Z,18.40
2019-02-27T10:38:16.812Z,17.50
2019-02-27T10:40:46.823Z,18.60
2019-02-27T10:43:16.592Z,19.00
2019-02-27T10:45:49.371Z,19.50
2019-02-27T10:48:17.375Z,20.20
2019-02-27T10:50:46.755Z,20.30
2019-02-27T10:53:16.179Z,20.70
2019-02-27T10:55:48.618Z,20.10
2019-02-27T10:58:16.854Z,20.10
2019-02-27T11:00:47.122Z,20.80
2019-02-27T11:03:16.694Z,19.60
2019-02-27T11:05:46.223Z,20.20
2019-02-27T11:08:15.836Z,20.50
2019-02-27T11:10:45.351Z,20.90
2019-02-27T11:13:14.945Z,21.10
2019-02-27T11:15:45.395Z,20.90
2019-02-27T11:18:15.096Z,20.80
2019-02-27T11:20:44.527Z,20.80
2019-02-27T11:23:14.168Z,20.70
2019-02-27T11:25:43.600Z,21.00
2019-02-27T11:28:13.067Z,21.10
2019-02-27T11:30:43.459Z,21.20
2019-02-27T11:33:24.798Z,21.60
2019-02-27T11:35:45.892Z,21.80
2019-02-27T11:38:15.543Z,21.40
2019-02-27T11:40:44.978Z,21.50
2019-02-27T11:43:14.371Z,21.00
2019-02-27T11:45:43.807Z,20.50
2019-02-27T11:48:13.278Z,21.10
2019-02-27T11:50:42.711Z,21.10
2019-02-27T11:53:12.184Z,21.40
2019-02-27T11:55:41.555Z,21.70
2019-02-27T11:58:11.028Z,21.50
2019-02-27T12:00:40.468Z,21.30
2019-02-27T12:03:11.108Z,21.50
2019-02-27T12:05:41.150Z,21.80
2019-02-27T12:08:11.399Z,21.20
2019-02-27T12:10:41.256Z,21.70
2019-02-27T12:13:10.865Z,21.90
2019-02-27T12:15:43.614Z,22.20
2019-02-27T12:18:13.409Z,22.00
2019-02-27T12:20:42.844Z,21.40
2019-02-27T12:23:12.383Z,21.20
2019-02-27T12:25:41.760Z,21.60
2019-02-27T12:28:11.237Z,21.40
2019-02-27T12:30:40.675Z,21.60
2019-02-27T12:33:10.210Z,21.60
2019-02-27T12:35:44.175Z,21.90
2019-02-27T12:38:11.473Z,21.80
2019-02-27T12:40:41.059Z,22.00
2019-02-27T12:43:10.517Z,21.80
2019-02-27T12:45:40.327Z,22.10
2019-02-27T12:48:12.596Z,22.20
2019-02-27T12:50:40.920Z,21.80
2019-02-27T12:53:10.280Z,21.20
2019-02-27T12:55:39.812Z,21.30
2019-02-27T12:58:09.170Z,22.00
2019-02-27T13:00:39.906Z,21.30
2019-02-27T13:03:10.047Z,21.40
2019-02-27T13:05:39.446Z,21.30
2019-02-27T13:08:28.211Z,21.10
2019-02-27T13:10:57.838Z,21.10
2019-02-27T13:13:27.199Z,21.20
2019-02-27T13:15:56.658Z,22.00
2019-02-27T13:18:31.603Z,21.70
2019-02-27T13:20:57.179Z,21.70
2019-02-27T13:23:26.539Z,21.80
2019-02-27T13:25:57.501Z,22.00
2019-02-27T13:28:27.170Z,22.20
2019-02-27T13:30:57.004Z,21.70
2019-02-27T13:33:26.459Z,21.90
2019-02-27T13:35:56.820Z,21.20
2019-02-27T13:38:27.588Z,21.70
2019-02-27T13:40:57.101Z,21.60
2019-02-27T13:43:27.756Z,21.50
2019-02-27T13:45:59.044Z,21.90
2019-02-27T13:48:28.448Z,22.10
2019-02-27T13:50:59.253Z,22.60
2019-02-27T13:53:29.078Z,22.30
2019-02-27T13:55:58.812Z,22.60
2019-02-27T13:58:28.347Z,22.50
2019-02-27T14:00:58.637Z,22.30
2019-02-27T14:03:28.251Z,21.90
2019-02-27T14:06:00.586Z,21.90
2019-02-27T14:08:32.164Z,21.70
2019-02-27T14:11:01.292Z,21.90
2019-02-27T14:13:30.942Z,21.70
2019-02-27T14:16:01.520Z,22.00
2019-02-27T14:18:31.225Z,21.90
2019-02-27T14:21:01.770Z,21.70
2019-02-27T14:23:31.788Z,21.70
2019-02-27T14:26:05.650Z,21.50
2019-02-27T14:28:32.359Z,21.40
2019-02-27T14:31:01.981Z,21.50
2019-02-27T14:33:31.465Z,21.30
2019-02-27T14:36:00.975Z,21.40
2019-02-27T14:38:30.385Z,21.40
2019-02-27T14:40:59.861Z,21.40
2019-02-27T14:43:29.339Z,21.50
2019-02-27T14:45:58.803Z,21.60
2019-02-27T14:48:28.274Z,21.90
2019-02-27T14:50:57.802Z,21.70
2019-02-27T14:53:27.343Z,21.40
2019-02-27T14:55:56.833Z,20.60
2019-02-27T14:58:26.219Z,20.20
2019-02-27T15:01:11.795Z,20.20
2019-02-27T15:03:41.108Z,20.30
2019-02-27T15:06:10.738Z,20.50
2019-02-27T15:08:40.157Z,20.40
2019-02-27T15:11:13.981Z,20.40
2019-02-27T15:13:40.805Z,19.50
2019-02-27T15:16:10.346Z,19.20
2019-02-27T15:18:41.295Z,18.70
2019-02-27T15:21:13.040Z,18.40
2019-02-27T15:23:41.914Z,18.20
2019-02-27T15:26:13.652Z,18.00
2019-02-27T15:28:42.617Z,18.00
2019-02-27T15:31:12.190Z,18.70
2019-02-27T15:33:41.595Z,19.00
2019-02-27T15:36:10.993Z,19.10
2019-02-27T15:38:45.670Z,18.70
2019-02-27T15:41:12.607Z,18.80
2019-02-27T15:43:42.207Z,19.10
2019-02-27T15:46:11.731Z,19.30
2019-02-27T15:48:41.546Z,19.30
2019-02-27T15:51:11.247Z,19.40
2019-02-27T15:53:40.645Z,19.50
2019-02-27T15:56:10.475Z,19.40
2019-02-27T15:58:39.917Z,19.10
2019-02-27T16:01:09.869Z,18.50
2019-02-27T16:03:41.980Z,17.90
2019-02-27T16:06:10.573Z,17.20
2019-02-27T16:08:40.013Z,16.50
2019-02-27T16:11:09.544Z,15.80
2019-02-27T16:13:39.284Z,15.40
2019-02-27T16:16:09.017Z,15.00
2019-02-27T16:18:38.417Z,14.70
2019-02-27T16:21:07.887Z,14.50
2019-02-27T16:23:38.073Z,14.20
2019-02-27T16:26:07.877Z,14.00
2019-02-27T16:28:37.310Z,13.80
2019-02-27T16:31:07.186Z,13.70
2019-02-27T16:33:36.759Z,13.50
2019-02-27T16:36:06.368Z,13.30
2019-02-27T16:38:35.848Z,13.10
2019-02-27T16:41:05.351Z,12.90
2019-02-27T16:43:35.141Z,12.60
2019-02-27T16:46:07.734Z,12.50
2019-02-27T16:48:48.469Z,12.30
2019-02-27T16:51:17.948Z,12.10
2019-02-27T16:53:52.398Z,12.00
2019-02-27T16:56:18.529Z,11.90
2019-02-27T16:58:48.002Z,11.70
2019-02-27T17:01:30.203Z,11.50
2019-02-27T17:04:00.584Z,11.40
2019-02-27T17:06:30.367Z,11.20
2019-02-27T17:08:59.907Z,11.10
2019-02-27T17:11:29.429Z,10.90
2019-02-27T17:14:00.385Z,10.80
2019-02-27T17:16:30.338Z,10.60
2019-02-27T17:19:01.837Z,10.60
2019-02-27T17:21:31.268Z,10.50
2019-02-27T17:24:00.738Z,10.30
2019-02-27T17:26:30.123Z,10.20
2019-02-27T17:28:59.566Z,10.00
2019-02-27T17:31:29.533Z,9.80
2019-02-27T17:34:00.585Z,9.70
2019-02-27T17:36:32.078Z,9.60
2019-02-27T17:39:01.151Z,9.40
2019-02-27T17:41:30.677Z,9.40
2019-02-27T17:44:03.842Z,9.30
2019-02-27T17:46:31.201Z,9.10
2019-02-27T17:49:00.593Z,9.00
2019-02-27T17:51:31.180Z,9.00
2019-02-27T17:54:00.733Z,8.80
2019-02-27T17:56:31.694Z,8.60
2019-02-27T17:59:01.214Z,8.50
2019-02-27T18:01:30.777Z,8.40
2019-02-27T18:04:00.242Z,8.30
2019-02-27T18:06:31.193Z,8.20
2019-02-27T18:09:01.866Z,8.20
2019-02-27T18:11:34.556Z,8.10
2019-02-27T18:14:09.063Z,8.10
2019-02-27T18:16:36.943Z,8.10
2019-02-27T18:19:06.420Z,8.00
2019-02-27T18:21:35.913Z,7.90
2019-02-27T18:24:06.068Z,7.90
2019-02-27T18:26:35.456Z,7.90
2019-02-27T18:29:07.684Z,7.80
2019-02-27T18:31:36.230Z,7.80
2019-02-27T18:34:05.826Z,7.70
2019-02-27T18:36:42.570Z,7.70
2019-02-27T18:39:07.264Z,7.70
2019-02-27T18:41:36.751Z,7.60
2019-02-27T18:44:08.063Z,7.60
2019-02-27T18:46:37.315Z,7.60
2019-02-27T18:49:06.718Z,7.60
2019-02-27T18:51:36.251Z,7.50
2019-02-27T18:54:07.343Z,7.50
2019-02-27T18:56:40.268Z,7.40
2019-02-27T18:59:08.146Z,7.40
2019-02-27T19:01:37.677Z,7.40
2019-02-27T19:04:07.401Z,7.30
2019-02-27T19:06:36.872Z,7.20
2019-02-27T19:09:06.824Z,7.10
2019-02-27T19:11:36.329Z,7.10
2019-02-27T19:14:06.485Z,7.00
2019-02-27T19:16:36.262Z,7.00
2019-02-27T19:19:05.775Z,6.90
2019-02-27T19:21:35.246Z,6.80
2019-02-27T19:24:04.914Z,6.70
2019-02-27T19:26:34.677Z,6.60
2019-02-27T19:29:04.335Z,6.60
2019-02-27T19:31:33.726Z,6.50
2019-02-27T19:34:03.243Z,6.60
2019-02-27T19:36:32.725Z,6.60
2019-02-27T19:39:05.024Z,6.70
2019-02-27T19:41:38.752Z,6.70
2019-02-27T19:44:05.651Z,6.60
2019-02-27T19:46:35.373Z,6.50
2019-02-27T19:49:04.993Z,6.50
2019-02-27T19:51:34.593Z,6.40
2019-02-27T19:54:04.132Z,6.40
2019-02-27T19:56:35.596Z,6.30
2019-02-27T19:59:04.965Z,6.20
2019-02-27T20:01:34.606Z,6.20
2019-02-27T20:04:09.217Z,6.10
2019-02-27T20:06:38.451Z,6.10
2019-02-27T20:09:09.077Z,6.00
2019-02-27T20:11:40.242Z,6.00
2019-02-27T20:14:09.860Z,5.90
2019-02-27T20:16:39.355Z,5.80
2019-02-27T20:19:08.910Z,5.80
2019-02-27T20:21:38.490Z,5.70
2019-02-27T20:24:14.421Z,5.70
2019-02-27T20:26:44.549Z,5.60
2019-02-27T20:29:11.968Z,5.60
2019-02-27T20:31:41.608Z,5.60
2019-02-27T20:34:12.635Z,5.50
2019-02-27T20:36:42.060Z,5.50
2019-02-27T20:39:11.816Z,5.40
2019-02-27T20:41:43.925Z,5.40
2019-02-27T20:44:12.935Z,5.40
2019-02-27T20:46:46.429Z,5.30
2019-02-27T20:49:33.995Z,5.40
2019-02-27T20:52:04.295Z,5.40
2019-02-27T20:54:33.788Z,5.30
2019-02-27T20:57:03.401Z,5.20
2019-02-27T20:59:32.911Z,5.30
2019-02-27T21:02:02.475Z,5.20
2019-02-27T21:04:32.349Z,5.40
2019-02-27T21:07:03.711Z,5.40
2019-02-27T21:09:33.485Z,5.40
2019-02-27T21:12:04.585Z,5.40
2019-02-27T21:14:34.144Z,5.30
2019-02-27T21:17:03.684Z,5.30
2019-02-27T21:19:33.891Z,5.30
2019-02-27T21:22:04.418Z,5.30
2019-02-27T21:24:33.950Z,5.30
2019-02-27T21:27:03.490Z,5.20
2019-02-27T21:29:32.984Z,5.10
2019-02-27T21:32:02.450Z,4.90
2019-02-27T21:34:33.510Z,4.80
2019-02-27T21:37:02.974Z,4.80
2019-02-27T21:39:32.402Z,4.70
2019-02-27T21:42:01.955Z,4.60
2019-02-27T21:44:31.400Z,4.40
2019-02-27T21:47:00.855Z,4.40
2019-02-27T21:49:32.268Z,4.30
2019-02-27T21:52:01.868Z,4.20
2019-02-27T21:54:38.257Z,4.20
2019-02-27T21:57:03.869Z,4.10
2019-02-27T21:59:33.293Z,4.10
2019-02-27T22:02:02.693Z,4.10
2019-02-27T22:04:32.096Z,4.10
2019-02-27T22:07:01.571Z,4.10
2019-02-27T22:09:31.131Z,4.00
2019-02-27T22:12:01.128Z,4.00
2019-02-27T22:14:31.619Z,4.10
2019-02-27T22:17:05.047Z,4.00
2019-02-27T22:19:33.688Z,3.90
2019-02-27T22:22:05.303Z,3.90
2019-02-27T22:24:34.132Z,3.90
2019-02-27T22:27:26.079Z,3.90
2019-02-27T22:29:55.951Z,3.80
2019-02-27T22:32:25.533Z,3.80
2019-02-27T22:34:54.978Z,3.80
2019-02-27T22:37:24.438Z,3.80
2019-02-27T22:39:53.843Z,3.80
2019-02-27T22:42:23.244Z,3.80
2019-02-27T22:44:52.655Z,3.70
2019-02-27T22:47:22.653Z,3.70
2019-02-27T22:49:52.798Z,3.70
2019-02-27T22:52:22.202Z,3.60
2019-02-27T22:54:51.722Z,3.60
2019-02-27T22:57:22.911Z,3.40
2019-02-27T22:59:52.214Z,3.40
2019-02-27T23:02:22.347Z,3.30
2019-02-27T23:04:51.871Z,3.30
2019-02-27T23:07:21.473Z,3.30
2019-02-27T23:09:52.148Z,3.30
2019-02-27T23:12:22.163Z,3.40
2019-02-27T23:14:52.952Z,3.40
2019-02-27T23:17:22.720Z,3.40
2019-02-27T23:19:52.381Z,3.40
2019-02-27T23:22:21.880Z,3.40
2019-02-27T23:24:51.316Z,3.40
2019-02-27T23:27:20.859Z,3.40
2019-02-27T23:29:50.464Z,3.40
2019-02-27T23:32:19.868Z,3.30
2019-02-27T23:34:49.272Z,3.30
2019-02-27T23:37:18.740Z,3.30
2019-02-27T23:39:48.346Z,3.40
2019-02-27T23:42:19.322Z,3.40
2019-02-27T23:44:48.732Z,3.40
2019-02-27T23:47:18.138Z,3.30
2019-02-27T23:49:47.538Z,3.40
2019-02-27T23:52:19.260Z,3.40
2019-02-27T23:54:48.336Z,3.30
2019-02-27T23:57:17.727Z,3.30
2019-02-27T23:59:47.122Z,3.30
